sensor_id;sensor_type;location;lat;lon;timestamp;P1;durP1;ratioP1;P2;durP2;ratioP2
42104;SDS011;68365;51.472;5.712;2023-04-25T00:02:20;4.57;;;2.63;;
42104;SDS011;68365;51.472;5.712;2023-04-25T00:04:47;5.70;;;2.75;;
42104;SDS011;68365;51.472;5.712;2023-04-25T00:07:13;5.05;;;2.72;;
42104;SDS011;68365;51.472;5.712;2023-04-25T00:09:40;5.53;;;2.60;;
42104;SDS011;68365;51.472;5.712;2023-04-25T00:12:07;4.53;;;2.70;;
42104;SDS011;68365;51.472;5.712;2023-04-25T00:14:33;5.45;;;2.83;;
42104;SDS011;68365;51.472;5.712;2023-04-25T00:17:00;5.55;;;2.55;;
42104;SDS011;68365;51.472;5.712;2023-04-25T00:19:27;6.05;;;2.80;;
42104;SDS011;68365;51.472;5.712;2023-04-25T00:21:54;5.57;;;2.83;;
42104;SDS011;68365;51.472;5.712;2023-04-25T00:24:20;5.93;;;2.88;;
42104;SDS011;68365;51.472;5.712;2023-04-25T00:26:46;6.40;;;2.70;;
42104;SDS011;68365;51.472;5.712;2023-04-25T00:29:12;5.05;;;2.83;;
42104;SDS011;68365;51.472;5.712;2023-04-25T00:31:38;4.47;;;2.58;;
42104;SDS011;68365;51.472;5.712;2023-04-25T00:34:04;4.65;;;2.60;;
42104;SDS011;68365;51.472;5.712;2023-04-25T00:36:31;4.88;;;2.60;;
42104;SDS011;68365;51.472;5.712;2023-04-25T00:38:57;5.80;;;2.90;;
42104;SDS011;68365;51.472;5.712;2023-04-25T00:41:23;5.80;;;2.72;;
42104;SDS011;68365;51.472;5.712;2023-04-25T00:43:51;5.88;;;2.63;;
42104;SDS011;68365;51.472;5.712;2023-04-25T00:46:19;8.48;;;2.78;;
42104;SDS011;68365;51.472;5.712;2023-04-25T00:48:44;7.43;;;2.65;;
42104;SDS011;68365;51.472;5.712;2023-04-25T00:51:12;4.78;;;2.60;;
42104;SDS011;68365;51.472;5.712;2023-04-25T00:53:44;5.85;;;2.88;;
42104;SDS011;68365;51.472;5.712;2023-04-25T00:56:10;5.65;;;2.50;;
42104;SDS011;68365;51.472;5.712;2023-04-25T00:58:36;4.00;;;2.15;;
42104;SDS011;68365;51.472;5.712;2023-04-25T01:01:03;4.97;;;2.70;;
42104;SDS011;68365;51.472;5.712;2023-04-25T01:03:30;6.18;;;2.60;;
42104;SDS011;68365;51.472;5.712;2023-04-25T01:06:01;3.72;;;2.40;;
42104;SDS011;68365;51.472;5.712;2023-04-25T01:08:27;5.22;;;2.47;;
42104;SDS011;68365;51.472;5.712;2023-04-25T01:10:54;4.55;;;2.53;;
42104;SDS011;68365;51.472;5.712;2023-04-25T01:13:19;4.80;;;2.20;;
42104;SDS011;68365;51.472;5.712;2023-04-25T01:15:45;4.45;;;2.63;;
42104;SDS011;68365;51.472;5.712;2023-04-25T01:18:11;4.65;;;2.47;;
42104;SDS011;68365;51.472;5.712;2023-04-25T01:20:37;4.90;;;2.50;;
42104;SDS011;68365;51.472;5.712;2023-04-25T01:23:06;4.10;;;2.35;;
42104;SDS011;68365;51.472;5.712;2023-04-25T01:25:32;6.15;;;2.60;;
42104;SDS011;68365;51.472;5.712;2023-04-25T01:27:59;5.63;;;2.67;;
42104;SDS011;68365;51.472;5.712;2023-04-25T01:30:25;5.47;;;2.70;;
42104;SDS011;68365;51.472;5.712;2023-04-25T01:32:54;4.97;;;2.30;;
42104;SDS011;68365;51.472;5.712;2023-04-25T01:35:21;5.53;;;2.60;;
42104;SDS011;68365;51.472;5.712;2023-04-25T01:37:49;3.58;;;2.35;;
42104;SDS011;68365;51.472;5.712;2023-04-25T01:40:16;5.47;;;2.30;;
42104;SDS011;68365;51.472;5.712;2023-04-25T01:42:45;4.15;;;2.47;;
42104;SDS011;68365;51.472;5.712;2023-04-25T01:45:11;4.47;;;2.30;;
42104;SDS011;68365;51.472;5.712;2023-04-25T01:47:38;5.40;;;2.47;;
42104;SDS011;68365;51.472;5.712;2023-04-25T01:50:05;5.38;;;2.65;;
42104;SDS011;68365;51.472;5.712;2023-04-25T01:52:33;4.85;;;2.40;;
42104;SDS011;68365;51.472;5.712;2023-04-25T01:54:59;4.72;;;2.40;;
42104;SDS011;68365;51.472;5.712;2023-04-25T01:57:27;5.03;;;2.60;;
42104;SDS011;68365;51.472;5.712;2023-04-25T01:59:55;6.20;;;2.40;;
42104;SDS011;68365;51.472;5.712;2023-04-25T02:02:26;4.15;;;2.55;;
42104;SDS011;68365;51.472;5.712;2023-04-25T02:04:52;6.60;;;2.42;;
42104;SDS011;68365;51.472;5.712;2023-04-25T02:07:19;4.40;;;2.40;;
42104;SDS011;68365;51.472;5.712;2023-04-25T02:09:45;5.20;;;2.45;;
42104;SDS011;68365;51.472;5.712;2023-04-25T02:12:11;4.97;;;2.67;;
42104;SDS011;68365;51.472;5.712;2023-04-25T02:14:37;5.40;;;2.42;;
42104;SDS011;68365;51.472;5.712;2023-04-25T02:17:03;3.85;;;2.42;;
42104;SDS011;68365;51.472;5.712;2023-04-25T02:19:29;5.20;;;2.50;;
42104;SDS011;68365;51.472;5.712;2023-04-25T02:21:54;5.45;;;2.22;;
42104;SDS011;68365;51.472;5.712;2023-04-25T02:24:22;5.00;;;2.35;;
42104;SDS011;68365;51.472;5.712;2023-04-25T02:26:48;4.50;;;2.70;;
42104;SDS011;68365;51.472;5.712;2023-04-25T02:29:14;5.57;;;2.25;;
42104;SDS011;68365;51.472;5.712;2023-04-25T02:31:41;6.00;;;2.45;;
42104;SDS011;68365;51.472;5.712;2023-04-25T02:34:07;4.63;;;2.20;;
42104;SDS011;68365;51.472;5.712;2023-04-25T02:36:33;4.68;;;2.30;;
42104;SDS011;68365;51.472;5.712;2023-04-25T02:39:00;4.68;;;2.67;;
42104;SDS011;68365;51.472;5.712;2023-04-25T02:41:26;4.88;;;2.28;;
42104;SDS011;68365;51.472;5.712;2023-04-25T02:43:52;3.17;;;2.10;;
42104;SDS011;68365;51.472;5.712;2023-04-25T02:46:18;4.53;;;2.13;;
42104;SDS011;68365;51.472;5.712;2023-04-25T02:48:43;3.63;;;2.13;;
42104;SDS011;68365;51.472;5.712;2023-04-25T02:51:09;5.53;;;2.70;;
42104;SDS011;68365;51.472;5.712;2023-04-25T02:53:35;4.30;;;2.10;;
42104;SDS011;68365;51.472;5.712;2023-04-25T02:56:01;6.35;;;2.30;;
42104;SDS011;68365;51.472;5.712;2023-04-25T02:58:27;5.90;;;2.33;;
42104;SDS011;68365;51.472;5.712;2023-04-25T03:00:53;3.30;;;2.03;;
42104;SDS011;68365;51.472;5.712;2023-04-25T03:03:19;4.95;;;2.55;;
42104;SDS011;68365;51.472;5.712;2023-04-25T03:05:48;6.22;;;2.58;;
42104;SDS011;68365;51.472;5.712;2023-04-25T03:08:17;3.88;;;2.30;;
42104;SDS011;68365;51.472;5.712;2023-04-25T03:10:44;4.85;;;2.70;;
42104;SDS011;68365;51.472;5.712;2023-04-25T03:13:10;6.22;;;2.10;;
42104;SDS011;68365;51.472;5.712;2023-04-25T03:15:38;3.92;;;2.25;;
42104;SDS011;68365;51.472;5.712;2023-04-25T03:18:04;4.50;;;2.42;;
42104;SDS011;68365;51.472;5.712;2023-04-25T03:20:30;4.35;;;2.40;;
42104;SDS011;68365;51.472;5.712;2023-04-25T03:22:56;3.45;;;2.20;;
42104;SDS011;68365;51.472;5.712;2023-04-25T03:25:21;4.95;;;2.30;;
42104;SDS011;68365;51.472;5.712;2023-04-25T03:27:47;5.45;;;2.70;;
42104;SDS011;68365;51.472;5.712;2023-04-25T03:30:13;5.68;;;2.53;;
42104;SDS011;68365;51.472;5.712;2023-04-25T03:32:39;4.53;;;2.40;;
42104;SDS011;68365;51.472;5.712;2023-04-25T03:35:05;4.97;;;2.40;;
42104;SDS011;68365;51.472;5.712;2023-04-25T03:37:31;5.43;;;2.40;;
42104;SDS011;68365;51.472;5.712;2023-04-25T03:39:57;4.03;;;2.10;;
42104;SDS011;68365;51.472;5.712;2023-04-25T03:42:22;5.28;;;2.42;;
42104;SDS011;68365;51.472;5.712;2023-04-25T03:44:49;3.72;;;2.10;;
42104;SDS011;68365;51.472;5.712;2023-04-25T03:47:16;4.47;;;2.13;;
42104;SDS011;68365;51.472;5.712;2023-04-25T03:49:41;4.38;;;1.90;;
42104;SDS011;68365;51.472;5.712;2023-04-25T03:52:07;5.10;;;2.40;;
42104;SDS011;68365;51.472;5.712;2023-04-25T03:54:33;4.85;;;2.10;;
42104;SDS011;68365;51.472;5.712;2023-04-25T03:56:59;4.97;;;2.20;;
42104;SDS011;68365;51.472;5.712;2023-04-25T03:59:25;5.72;;;2.20;;
42104;SDS011;68365;51.472;5.712;2023-04-25T04:01:51;4.85;;;2.35;;
42104;SDS011;68365;51.472;5.712;2023-04-25T04:04:17;3.53;;;2.08;;
42104;SDS011;68365;51.472;5.712;2023-04-25T04:06:43;5.25;;;2.17;;
42104;SDS011;68365;51.472;5.712;2023-04-25T04:09:09;5.80;;;2.50;;
42104;SDS011;68365;51.472;5.712;2023-04-25T04:11:36;4.90;;;2.30;;
42104;SDS011;68365;51.472;5.712;2023-04-25T04:14:07;4.28;;;2.22;;
42104;SDS011;68365;51.472;5.712;2023-04-25T04:16:33;4.13;;;2.05;;
42104;SDS011;68365;51.472;5.712;2023-04-25T04:18:59;5.97;;;2.30;;
42104;SDS011;68365;51.472;5.712;2023-04-25T04:21:24;4.88;;;2.40;;
42104;SDS011;68365;51.472;5.712;2023-04-25T04:23:52;4.70;;;2.40;;
42104;SDS011;68365;51.472;5.712;2023-04-25T04:26:19;5.40;;;2.30;;
42104;SDS011;68365;51.472;5.712;2023-04-25T04:28:48;3.55;;;2.10;;
42104;SDS011;68365;51.472;5.712;2023-04-25T04:31:19;7.47;;;2.60;;
42104;SDS011;68365;51.472;5.712;2023-04-25T04:33:46;4.38;;;2.30;;
42104;SDS011;68365;51.472;5.712;2023-04-25T04:36:12;5.13;;;2.30;;
42104;SDS011;68365;51.472;5.712;2023-04-25T04:38:39;3.92;;;2.00;;
42104;SDS011;68365;51.472;5.712;2023-04-25T04:41:07;5.78;;;2.53;;
42104;SDS011;68365;51.472;5.712;2023-04-25T04:43:33;4.63;;;2.47;;
42104;SDS011;68365;51.472;5.712;2023-04-25T04:46:02;3.47;;;1.92;;
42104;SDS011;68365;51.472;5.712;2023-04-25T04:48:33;3.97;;;2.22;;
42104;SDS011;68365;51.472;5.712;2023-04-25T04:50:59;3.67;;;1.95;;
42104;SDS011;68365;51.472;5.712;2023-04-25T04:53:26;5.97;;;2.42;;
42104;SDS011;68365;51.472;5.712;2023-04-25T04:55:52;6.20;;;2.28;;
42104;SDS011;68365;51.472;5.712;2023-04-25T04:58:18;4.15;;;2.20;;
42104;SDS011;68365;51.472;5.712;2023-04-25T05:00:44;5.60;;;2.35;;
42104;SDS011;68365;51.472;5.712;2023-04-25T05:03:11;3.38;;;2.05;;
42104;SDS011;68365;51.472;5.712;2023-04-25T05:05:37;3.33;;;1.90;;
42104;SDS011;68365;51.472;5.712;2023-04-25T05:08:05;6.00;;;2.38;;
42104;SDS011;68365;51.472;5.712;2023-04-25T05:10:31;4.60;;;2.38;;
42104;SDS011;68365;51.472;5.712;2023-04-25T05:12:57;5.78;;;2.30;;
42104;SDS011;68365;51.472;5.712;2023-04-25T05:15:22;3.67;;;2.10;;
42104;SDS011;68365;51.472;5.712;2023-04-25T05:17:48;7.70;;;2.50;;
42104;SDS011;68365;51.472;5.712;2023-04-25T05:20:14;5.03;;;2.20;;
42104;SDS011;68365;51.472;5.712;2023-04-25T05:22:40;4.00;;;2.22;;
42104;SDS011;68365;51.472;5.712;2023-04-25T05:25:07;5.90;;;2.38;;
42104;SDS011;68365;51.472;5.712;2023-04-25T05:27:34;5.00;;;2.20;;
42104;SDS011;68365;51.472;5.712;2023-04-25T05:30:00;4.72;;;2.03;;
42104;SDS011;68365;51.472;5.712;2023-04-25T05:32:26;4.15;;;2.10;;
42104;SDS011;68365;51.472;5.712;2023-04-25T05:34:51;4.00;;;2.38;;
42104;SDS011;68365;51.472;5.712;2023-04-25T05:37:17;5.82;;;2.20;;
42104;SDS011;68365;51.472;5.712;2023-04-25T05:39:43;4.45;;;2.15;;
42104;SDS011;68365;51.472;5.712;2023-04-25T05:42:09;4.25;;;2.08;;
42104;SDS011;68365;51.472;5.712;2023-04-25T05:44:35;4.93;;;2.28;;
42104;SDS011;68365;51.472;5.712;2023-04-25T05:47:01;4.68;;;2.20;;
42104;SDS011;68365;51.472;5.712;2023-04-25T05:49:26;3.33;;;1.85;;
42104;SDS011;68365;51.472;5.712;2023-04-25T05:51:52;4.22;;;2.53;;
42104;SDS011;68365;51.472;5.712;2023-04-25T05:54:18;4.57;;;2.17;;
42104;SDS011;68365;51.472;5.712;2023-04-25T05:56:44;3.90;;;2.30;;
42104;SDS011;68365;51.472;5.712;2023-04-25T05:59:09;4.45;;;2.05;;
42104;SDS011;68365;51.472;5.712;2023-04-25T06:01:35;5.03;;;2.10;;
42104;SDS011;68365;51.472;5.712;2023-04-25T06:04:01;3.47;;;2.08;;
42104;SDS011;68365;51.472;5.712;2023-04-25T06:06:27;5.65;;;2.15;;
42104;SDS011;68365;51.472;5.712;2023-04-25T06:08:53;3.90;;;2.00;;
42104;SDS011;68365;51.472;5.712;2023-04-25T06:11:20;4.78;;;1.90;;
42104;SDS011;68365;51.472;5.712;2023-04-25T06:13:46;3.53;;;2.20;;
42104;SDS011;68365;51.472;5.712;2023-04-25T06:16:12;4.40;;;2.70;;
42104;SDS011;68365;51.472;5.712;2023-04-25T06:18:37;4.65;;;2.08;;
42104;SDS011;68365;51.472;5.712;2023-04-25T06:21:03;4.95;;;2.20;;
42104;SDS011;68365;51.472;5.712;2023-04-25T06:23:29;4.43;;;2.00;;
42104;SDS011;68365;51.472;5.712;2023-04-25T06:25:55;2.92;;;1.70;;
42104;SDS011;68365;51.472;5.712;2023-04-25T06:28:21;4.60;;;2.60;;
42104;SDS011;68365;51.472;5.712;2023-04-25T06:30:47;5.82;;;2.20;;
42104;SDS011;68365;51.472;5.712;2023-04-25T06:33:12;3.45;;;2.00;;
42104;SDS011;68365;51.472;5.712;2023-04-25T06:35:38;4.45;;;2.20;;
42104;SDS011;68365;51.472;5.712;2023-04-25T06:38:04;3.97;;;2.20;;
42104;SDS011;68365;51.472;5.712;2023-04-25T06:40:30;4.72;;;1.98;;
42104;SDS011;68365;51.472;5.712;2023-04-25T06:42:56;3.47;;;1.88;;
42104;SDS011;68365;51.472;5.712;2023-04-25T06:45:22;4.32;;;2.30;;
42104;SDS011;68365;51.472;5.712;2023-04-25T06:47:47;5.00;;;2.40;;
42104;SDS011;68365;51.472;5.712;2023-04-25T06:50:13;4.18;;;2.20;;
42104;SDS011;68365;51.472;5.712;2023-04-25T06:52:39;4.82;;;2.53;;
42104;SDS011;68365;51.472;5.712;2023-04-25T06:55:05;9.10;;;3.47;;
42104;SDS011;68365;51.472;5.712;2023-04-25T06:57:31;26.38;;;7.03;;
42104;SDS011;68365;51.472;5.712;2023-04-25T06:59:57;41.90;;;11.00;;
42104;SDS011;68365;51.472;5.712;2023-04-25T07:02:22;39.92;;;11.20;;
42104;SDS011;68365;51.472;5.712;2023-04-25T07:04:48;29.40;;;8.38;;
42104;SDS011;68365;51.472;5.712;2023-04-25T07:07:14;21.10;;;6.63;;
42104;SDS011;68365;51.472;5.712;2023-04-25T07:09:40;19.30;;;5.93;;
42104;SDS011;68365;51.472;5.712;2023-04-25T07:12:06;17.77;;;5.38;;
42104;SDS011;68365;51.472;5.712;2023-04-25T07:14:31;18.92;;;5.97;;
42104;SDS011;68365;51.472;5.712;2023-04-25T07:16:57;19.55;;;5.55;;
42104;SDS011;68365;51.472;5.712;2023-04-25T07:19:23;19.33;;;4.78;;
42104;SDS011;68365;51.472;5.712;2023-04-25T07:21:51;13.05;;;4.30;;
42104;SDS011;68365;51.472;5.712;2023-04-25T07:24:17;13.27;;;4.80;;
42104;SDS011;68365;51.472;5.712;2023-04-25T07:26:43;13.93;;;4.25;;
42104;SDS011;68365;51.472;5.712;2023-04-25T07:29:09;13.02;;;4.57;;
42104;SDS011;68365;51.472;5.712;2023-04-25T07:31:35;11.88;;;4.28;;
42104;SDS011;68365;51.472;5.712;2023-04-25T07:34:01;15.18;;;4.07;;
42104;SDS011;68365;51.472;5.712;2023-04-25T07:36:27;13.77;;;4.57;;
42104;SDS011;68365;51.472;5.712;2023-04-25T07:38:53;9.02;;;4.03;;
42104;SDS011;68365;51.472;5.712;2023-04-25T07:41:19;13.32;;;4.13;;
42104;SDS011;68365;51.472;5.712;2023-04-25T07:43:44;9.35;;;3.70;;
42104;SDS011;68365;51.472;5.712;2023-04-25T07:46:10;11.00;;;3.58;;
42104;SDS011;68365;51.472;5.712;2023-04-25T07:48:36;11.75;;;3.80;;
42104;SDS011;68365;51.472;5.712;2023-04-25T07:51:02;11.40;;;3.83;;
42104;SDS011;68365;51.472;5.712;2023-04-25T07:53:29;9.50;;;2.92;;
42104;SDS011;68365;51.472;5.712;2023-04-25T07:55:55;9.13;;;3.13;;
42104;SDS011;68365;51.472;5.712;2023-04-25T07:58:21;10.13;;;3.72;;
42104;SDS011;68365;51.472;5.712;2023-04-25T08:00:47;8.00;;;3.30;;
42104;SDS011;68365;51.472;5.712;2023-04-25T08:03:13;11.25;;;3.35;;
42104;SDS011;68365;51.472;5.712;2023-04-25T08:05:39;10.00;;;3.00;;
42104;SDS011;68365;51.472;5.712;2023-04-25T08:08:05;11.20;;;3.22;;
42104;SDS011;68365;51.472;5.712;2023-04-25T08:10:32;10.02;;;3.25;;
42104;SDS011;68365;51.472;5.712;2023-04-25T08:12:58;11.10;;;3.25;;
42104;SDS011;68365;51.472;5.712;2023-04-25T08:15:24;9.98;;;3.22;;
42104;SDS011;68365;51.472;5.712;2023-04-25T08:17:51;10.60;;;3.28;;
42104;SDS011;68365;51.472;5.712;2023-04-25T08:20:17;6.80;;;2.92;;
42104;SDS011;68365;51.472;5.712;2023-04-25T08:22:43;9.68;;;3.08;;
42104;SDS011;68365;51.472;5.712;2023-04-25T08:25:08;7.72;;;3.30;;
42104;SDS011;68365;51.472;5.712;2023-04-25T08:27:34;8.70;;;3.00;;
42104;SDS011;68365;51.472;5.712;2023-04-25T08:30:01;7.63;;;3.20;;
42104;SDS011;68365;51.472;5.712;2023-04-25T08:32:28;11.65;;;4.10;;
42104;SDS011;68365;51.472;5.712;2023-04-25T08:34:54;9.13;;;2.80;;
42104;SDS011;68365;51.472;5.712;2023-04-25T08:37:20;6.85;;;3.13;;
42104;SDS011;68365;51.472;5.712;2023-04-25T08:39:47;8.38;;;3.20;;
42104;SDS011;68365;51.472;5.712;2023-04-25T08:42:13;9.18;;;3.80;;
42104;SDS011;68365;51.472;5.712;2023-04-25T08:44:40;8.68;;;3.50;;
42104;SDS011;68365;51.472;5.712;2023-04-25T08:47:06;7.38;;;3.20;;
42104;SDS011;68365;51.472;5.712;2023-04-25T08:49:32;9.65;;;3.28;;
42104;SDS011;68365;51.472;5.712;2023-04-25T08:52:03;8.38;;;3.20;;
42104;SDS011;68365;51.472;5.712;2023-04-25T08:54:31;6.78;;;3.33;;
42104;SDS011;68365;51.472;5.712;2023-04-25T08:57:00;8.05;;;3.20;;
42104;SDS011;68365;51.472;5.712;2023-04-25T08:59:29;6.00;;;3.25;;
42104;SDS011;68365;51.472;5.712;2023-04-25T09:01:56;6.32;;;3.28;;
42104;SDS011;68365;51.472;5.712;2023-04-25T09:04:22;8.98;;;3.53;;
42104;SDS011;68365;51.472;5.712;2023-04-25T09:06:48;7.75;;;3.00;;
42104;SDS011;68365;51.472;5.712;2023-04-25T09:09:14;5.97;;;3.10;;
42104;SDS011;68365;51.472;5.712;2023-04-25T09:11:40;7.88;;;3.25;;
42104;SDS011;68365;51.472;5.712;2023-04-25T09:14:10;6.38;;;3.60;;
42104;SDS011;68365;51.472;5.712;2023-04-25T09:19:24;8.82;;;3.30;;
42104;SDS011;68365;51.472;5.712;2023-04-25T09:21:53;7.32;;;2.88;;
42104;SDS011;68365;51.472;5.712;2023-04-25T09:27:12;11.85;;;2.53;;
42104;SDS011;68365;51.472;5.712;2023-04-25T09:29:43;16.15;;;2.47;;
42104;SDS011;68365;51.472;5.712;2023-04-25T09:32:16;9.40;;;2.13;;
42104;SDS011;68365;51.472;5.712;2023-04-25T09:34:48;11.52;;;2.10;;
42104;SDS011;68365;51.472;5.712;2023-04-25T09:37:20;9.32;;;2.25;;
42104;SDS011;68365;51.472;5.712;2023-04-25T09:39:58;6.78;;;2.00;;
42104;SDS011;68365;51.472;5.712;2023-04-25T09:42:30;8.02;;;2.10;;
42104;SDS011;68365;51.472;5.712;2023-04-25T09:44:57;7.93;;;2.67;;
42104;SDS011;68365;51.472;5.712;2023-04-25T09:47:25;11.48;;;2.10;;
42104;SDS011;68365;51.472;5.712;2023-04-25T09:49:52;7.88;;;2.08;;
42104;SDS011;68365;51.472;5.712;2023-04-25T09:52:19;9.25;;;2.53;;
42104;SDS011;68365;51.472;5.712;2023-04-25T09:54:47;10.68;;;2.50;;
42104;SDS011;68365;51.472;5.712;2023-04-25T09:57:15;7.03;;;2.58;;
42104;SDS011;68365;51.472;5.712;2023-04-25T09:59:44;8.50;;;2.40;;
42104;SDS011;68365;51.472;5.712;2023-04-25T10:02:17;13.10;;;2.30;;
42104;SDS011;68365;51.472;5.712;2023-04-25T10:04:49;8.43;;;2.05;;
42104;SDS011;68365;51.472;5.712;2023-04-25T10:07:18;6.28;;;1.77;;
42104;SDS011;68365;51.472;5.712;2023-04-25T10:09:47;5.90;;;2.10;;
42104;SDS011;68365;51.472;5.712;2023-04-25T10:12:17;7.82;;;2.03;;
42104;SDS011;68365;51.472;5.712;2023-04-25T10:14:43;8.35;;;2.10;;
42104;SDS011;68365;51.472;5.712;2023-04-25T10:17:10;7.18;;;1.95;;
42104;SDS011;68365;51.472;5.712;2023-04-25T10:19:36;7.20;;;2.20;;
42104;SDS011;68365;51.472;5.712;2023-04-25T10:22:20;6.22;;;1.80;;
42104;SDS011;68365;51.472;5.712;2023-04-25T10:24:55;4.72;;;1.85;;
42104;SDS011;68365;51.472;5.712;2023-04-25T10:27:22;6.78;;;2.00;;
42104;SDS011;68365;51.472;5.712;2023-04-25T10:30:04;6.13;;;1.95;;
42104;SDS011;68365;51.472;5.712;2023-04-25T10:32:39;11.65;;;2.10;;
42104;SDS011;68365;51.472;5.712;2023-04-25T10:35:12;5.55;;;1.73;;
42104;SDS011;68365;51.472;5.712;2023-04-25T10:38:06;7.53;;;1.73;;
42104;SDS011;68365;51.472;5.712;2023-04-25T10:40:35;8.48;;;2.03;;
42104;SDS011;68365;51.472;5.712;2023-04-25T10:48:56;3.90;;;1.80;;
42104;SDS011;68365;51.472;5.712;2023-04-25T10:51:33;5.53;;;1.90;;
42104;SDS011;68365;51.472;5.712;2023-04-25T10:54:01;7.93;;;1.90;;
42104;SDS011;68365;51.472;5.712;2023-04-25T10:56:33;6.88;;;1.90;;
42104;SDS011;68365;51.472;5.712;2023-04-25T11:01:39;4.55;;;1.48;;
42104;SDS011;68365;51.472;5.712;2023-04-25T11:04:23;5.75;;;1.98;;
42104;SDS011;68365;51.472;5.712;2023-04-25T11:10:03;4.63;;;1.77;;
42104;SDS011;68365;51.472;5.712;2023-04-25T11:12:31;4.45;;;1.85;;
42104;SDS011;68365;51.472;5.712;2023-04-25T11:15:04;8.45;;;1.90;;
42104;SDS011;68365;51.472;5.712;2023-04-25T11:17:33;4.47;;;1.80;;
42104;SDS011;68365;51.472;5.712;2023-04-25T11:20:00;6.97;;;1.70;;
42104;SDS011;68365;51.472;5.712;2023-04-25T11:22:27;6.65;;;1.73;;
42104;SDS011;68365;51.472;5.712;2023-04-25T11:24:53;6.90;;;1.92;;
42104;SDS011;68365;51.472;5.712;2023-04-25T11:27:19;7.28;;;1.95;;
42104;SDS011;68365;51.472;5.712;2023-04-25T11:29:46;5.25;;;1.67;;
42104;SDS011;68365;51.472;5.712;2023-04-25T11:32:15;10.27;;;2.10;;
42104;SDS011;68365;51.472;5.712;2023-04-25T11:34:43;5.15;;;1.70;;
42104;SDS011;68365;51.472;5.712;2023-04-25T11:37:10;12.38;;;1.95;;
42104;SDS011;68365;51.472;5.712;2023-04-25T11:39:37;7.65;;;1.90;;
42104;SDS011;68365;51.472;5.712;2023-04-25T11:42:04;4.78;;;1.80;;
42104;SDS011;68365;51.472;5.712;2023-04-25T11:44:30;6.50;;;1.63;;
42104;SDS011;68365;51.472;5.712;2023-04-25T11:46:56;5.53;;;1.80;;
42104;SDS011;68365;51.472;5.712;2023-04-25T11:49:22;3.65;;;1.58;;
42104;SDS011;68365;51.472;5.712;2023-04-25T11:51:49;4.95;;;1.67;;
42104;SDS011;68365;51.472;5.712;2023-04-25T11:54:15;7.28;;;1.90;;
42104;SDS011;68365;51.472;5.712;2023-04-25T11:56:42;7.57;;;1.67;;
42104;SDS011;68365;51.472;5.712;2023-04-25T11:59:11;4.68;;;1.83;;
42104;SDS011;68365;51.472;5.712;2023-04-25T12:01:38;7.07;;;2.33;;
42104;SDS011;68365;51.472;5.712;2023-04-25T12:04:12;5.60;;;2.28;;
42104;SDS011;68365;51.472;5.712;2023-04-25T12:06:44;7.28;;;1.98;;
42104;SDS011;68365;51.472;5.712;2023-04-25T12:09:14;3.65;;;1.92;;
42104;SDS011;68365;51.472;5.712;2023-04-25T12:11:54;4.82;;;1.90;;
42104;SDS011;68365;51.472;5.712;2023-04-25T12:14:22;3.42;;;1.60;;
42104;SDS011;68365;51.472;5.712;2023-04-25T12:16:57;4.55;;;1.98;;
42104;SDS011;68365;51.472;5.712;2023-04-25T12:19:25;4.97;;;1.67;;
42104;SDS011;68365;51.472;5.712;2023-04-25T12:21:57;6.50;;;2.05;;
42104;SDS011;68365;51.472;5.712;2023-04-25T12:24:23;6.32;;;1.90;;
42104;SDS011;68365;51.472;5.712;2023-04-25T12:29:26;6.63;;;1.67;;
42104;SDS011;68365;51.472;5.712;2023-04-25T12:31:58;3.38;;;1.80;;
42104;SDS011;68365;51.472;5.712;2023-04-25T12:34:26;5.75;;;1.60;;
42104;SDS011;68365;51.472;5.712;2023-04-25T12:36:52;6.93;;;1.80;;
42104;SDS011;68365;51.472;5.712;2023-04-25T12:39:19;7.82;;;1.90;;
42104;SDS011;68365;51.472;5.712;2023-04-25T12:41:52;7.53;;;1.80;;
42104;SDS011;68365;51.472;5.712;2023-04-25T12:44:19;5.78;;;1.60;;
42104;SDS011;68365;51.472;5.712;2023-04-25T12:46:46;7.18;;;1.92;;
42104;SDS011;68365;51.472;5.712;2023-04-25T12:49:13;4.55;;;1.70;;
42104;SDS011;68365;51.472;5.712;2023-04-25T12:51:39;4.60;;;1.65;;
42104;SDS011;68365;51.472;5.712;2023-04-25T12:54:07;3.55;;;1.65;;
42104;SDS011;68365;51.472;5.712;2023-04-25T12:56:33;4.82;;;1.40;;
42104;SDS011;68365;51.472;5.712;2023-04-25T12:59:00;4.50;;;1.60;;
42104;SDS011;68365;51.472;5.712;2023-04-25T13:01:27;3.53;;;1.75;;
42104;SDS011;68365;51.472;5.712;2023-04-25T13:03:54;5.47;;;1.85;;
42104;SDS011;68365;51.472;5.712;2023-04-25T13:06:20;5.25;;;1.45;;
42104;SDS011;68365;51.472;5.712;2023-04-25T13:08:47;3.95;;;1.60;;
42104;SDS011;68365;51.472;5.712;2023-04-25T13:11:13;4.05;;;1.30;;
42104;SDS011;68365;51.472;5.712;2023-04-25T13:13:43;2.78;;;1.33;;
42104;SDS011;68365;51.472;5.712;2023-04-25T13:16:09;3.75;;;1.63;;
42104;SDS011;68365;51.472;5.712;2023-04-25T13:18:37;4.63;;;1.65;;
42104;SDS011;68365;51.472;5.712;2023-04-25T13:21:02;7.43;;;2.00;;
42104;SDS011;68365;51.472;5.712;2023-04-25T13:23:28;5.30;;;1.55;;
42104;SDS011;68365;51.472;5.712;2023-04-25T13:25:55;3.85;;;1.50;;
42104;SDS011;68365;51.472;5.712;2023-04-25T13:28:25;4.35;;;1.63;;
42104;SDS011;68365;51.472;5.712;2023-04-25T13:30:51;4.25;;;1.73;;
42104;SDS011;68365;51.472;5.712;2023-04-25T13:33:18;4.90;;;1.50;;
42104;SDS011;68365;51.472;5.712;2023-04-25T13:35:45;3.28;;;1.27;;
42104;SDS011;68365;51.472;5.712;2023-04-25T13:38:18;4.97;;;1.50;;
42104;SDS011;68365;51.472;5.712;2023-04-25T13:40:47;4.72;;;1.50;;
42104;SDS011;68365;51.472;5.712;2023-04-25T13:43:13;5.75;;;1.52;;
42104;SDS011;68365;51.472;5.712;2023-04-25T13:45:39;3.33;;;1.30;;
42104;SDS011;68365;51.472;5.712;2023-04-25T13:48:05;2.60;;;1.30;;
42104;SDS011;68365;51.472;5.712;2023-04-25T13:50:31;2.30;;;1.30;;
42104;SDS011;68365;51.472;5.712;2023-04-25T13:52:57;3.22;;;1.50;;
42104;SDS011;68365;51.472;5.712;2023-04-25T13:55:23;3.33;;;1.42;;
42104;SDS011;68365;51.472;5.712;2023-04-25T13:57:48;3.38;;;1.45;;
42104;SDS011;68365;51.472;5.712;2023-04-25T14:00:14;3.10;;;1.17;;
42104;SDS011;68365;51.472;5.712;2023-04-25T14:02:41;3.90;;;1.40;;
42104;SDS011;68365;51.472;5.712;2023-04-25T14:05:07;2.42;;;1.20;;
42104;SDS011;68365;51.472;5.712;2023-04-25T14:07:34;2.30;;;1.15;;
42104;SDS011;68365;51.472;5.712;2023-04-25T14:10:01;4.20;;;1.20;;
42104;SDS011;68365;51.472;5.712;2023-04-25T14:12:29;4.68;;;1.40;;
42104;SDS011;68365;51.472;5.712;2023-04-25T14:14:55;2.78;;;1.40;;
42104;SDS011;68365;51.472;5.712;2023-04-25T14:17:21;4.80;;;1.33;;
42104;SDS011;68365;51.472;5.712;2023-04-25T14:19:46;3.08;;;1.58;;
42104;SDS011;68365;51.472;5.712;2023-04-25T14:22:13;2.20;;;1.30;;
42104;SDS011;68365;51.472;5.712;2023-04-25T14:24:42;3.05;;;1.30;;
42104;SDS011;68365;51.472;5.712;2023-04-25T14:27:08;3.08;;;1.15;;
42104;SDS011;68365;51.472;5.712;2023-04-25T14:29:34;2.70;;;1.30;;
42104;SDS011;68365;51.472;5.712;2023-04-25T14:32:00;2.97;;;1.55;;
42104;SDS011;68365;51.472;5.712;2023-04-25T14:34:26;3.53;;;1.40;;
42104;SDS011;68365;51.472;5.712;2023-04-25T14:36:53;2.20;;;1.20;;
42104;SDS011;68365;51.472;5.712;2023-04-25T14:39:19;2.60;;;1.20;;
42104;SDS011;68365;51.472;5.712;2023-04-25T14:41:45;3.03;;;1.10;;
42104;SDS011;68365;51.472;5.712;2023-04-25T14:44:10;2.30;;;1.23;;
42104;SDS011;68365;51.472;5.712;2023-04-25T14:46:36;3.35;;;1.33;;
42104;SDS011;68365;51.472;5.712;2023-04-25T14:49:03;2.10;;;1.27;;
42104;SDS011;68365;51.472;5.712;2023-04-25T14:51:29;2.15;;;1.00;;
42104;SDS011;68365;51.472;5.712;2023-04-25T14:53:56;2.28;;;1.33;;
42104;SDS011;68365;51.472;5.712;2023-04-25T14:56:22;3.20;;;1.20;;
42104;SDS011;68365;51.472;5.712;2023-04-25T14:58:48;2.95;;;1.20;;
42104;SDS011;68365;51.472;5.712;2023-04-25T15:01:13;3.63;;;1.40;;
42104;SDS011;68365;51.472;5.712;2023-04-25T15:03:39;2.72;;;1.58;;
42104;SDS011;68365;51.472;5.712;2023-04-25T15:06:06;1.25;;;0.98;;